Salinas, Brazil
Current Conditions -  °F | °C
As of 6:00 PM on Friday 28 Nov 2014 (Local Time) from SBMK Reporting Station
Broken Clouds Broken Clouds  
Wind Chill: 82°   Ceiling: 10000
Heat Index: 84°   Visibility: 6mi
Dew Point: 64°   Wind: 6mph
Humidity: 54%   Direction: 200°SSW
Pressure: 29.94"   Gusts: NA
Location:  16.17°S, 42.29°W
Report Text: SBMK 282000Z 20005KT 9999 FEW045 BKN100 28/18 Q1014
Loading
Personal Weather Stations






























Interactive Weather Map New forecast layout! Learn more

10-Day Weather Forecast

Advertisements
Track Severe Weather on mobile